sensor_id;sensor_type;location;lat;lon;timestamp;P1;durP1;ratioP1;P2;durP2;ratioP2
36191;SDS011;22233;42.708;23.360;2023-03-21T00:00:14;10.18;;;5.95;;
36191;SDS011;22233;42.708;23.360;2023-03-21T00:02:40;8.63;;;5.70;;
36191;SDS011;22233;42.708;23.360;2023-03-21T00:05:05;7.53;;;5.70;;
36191;SDS011;22233;42.708;23.360;2023-03-21T00:07:31;8.60;;;5.30;;
36191;SDS011;22233;42.708;23.360;2023-03-21T00:09:56;9.00;;;6.03;;
36191;SDS011;22233;42.708;23.360;2023-03-21T00:12:22;8.70;;;5.47;;
36191;SDS011;22233;42.708;23.360;2023-03-21T00:14:47;7.97;;;5.65;;
36191;SDS011;22233;42.708;23.360;2023-03-21T00:17:13;7.50;;;5.60;;
36191;SDS011;22233;42.708;23.360;2023-03-21T00:19:39;6.93;;;5.07;;
36191;SDS011;22233;42.708;23.360;2023-03-21T00:22:05;10.73;;;7.13;;
36191;SDS011;22233;42.708;23.360;2023-03-21T00:24:32;7.18;;;5.60;;
36191;SDS011;22233;42.708;23.360;2023-03-21T00:26:57;9.52;;;5.50;;
36191;SDS011;22233;42.708;23.360;2023-03-21T00:29:23;8.25;;;5.25;;
36191;SDS011;22233;42.708;23.360;2023-03-21T00:31:48;6.82;;;5.22;;
36191;SDS011;22233;42.708;23.360;2023-03-21T00:34:13;7.50;;;5.18;;
36191;SDS011;22233;42.708;23.360;2023-03-21T00:36:39;7.57;;;5.45;;
36191;SDS011;22233;42.708;23.360;2023-03-21T00:39:04;7.95;;;6.03;;
36191;SDS011;22233;42.708;23.360;2023-03-21T00:41:30;7.82;;;5.45;;
36191;SDS011;22233;42.708;23.360;2023-03-21T00:43:56;8.68;;;6.00;;
36191;SDS011;22233;42.708;23.360;2023-03-21T00:46:21;9.52;;;6.10;;
36191;SDS011;22233;42.708;23.360;2023-03-21T00:48:47;9.55;;;6.85;;
36191;SDS011;22233;42.708;23.360;2023-03-21T00:51:14;8.70;;;6.00;;
36191;SDS011;22233;42.708;23.360;2023-03-21T00:53:49;10.98;;;7.30;;
36191;SDS011;22233;42.708;23.360;2023-03-21T00:56:15;11.63;;;6.78;;
36191;SDS011;22233;42.708;23.360;2023-03-21T00:58:40;13.18;;;7.07;;
36191;SDS011;22233;42.708;23.360;2023-03-21T01:01:06;12.20;;;6.80;;
36191;SDS011;22233;42.708;23.360;2023-03-21T01:03:33;9.93;;;7.22;;
36191;SDS011;22233;42.708;23.360;2023-03-21T01:06:06;9.20;;;7.28;;
36191;SDS011;22233;42.708;23.360;2023-03-21T01:08:34;12.90;;;8.30;;
36191;SDS011;22233;42.708;23.360;2023-03-21T01:11:04;9.85;;;6.88;;
36191;SDS011;22233;42.708;23.360;2023-03-21T01:13:32;13.07;;;7.45;;
36191;SDS011;22233;42.708;23.360;2023-03-21T01:15:57;11.13;;;7.30;;
36191;SDS011;22233;42.708;23.360;2023-03-21T01:18:25;12.05;;;7.47;;
36191;SDS011;22233;42.708;23.360;2023-03-21T01:20:53;11.02;;;7.18;;
36191;SDS011;22233;42.708;23.360;2023-03-21T01:23:20;13.23;;;7.93;;
36191;SDS011;22233;42.708;23.360;2023-03-21T01:25:47;15.88;;;7.85;;
36191;SDS011;22233;42.708;23.360;2023-03-21T01:28:13;13.50;;;7.40;;
36191;SDS011;22233;42.708;23.360;2023-03-21T01:30:43;11.55;;;7.95;;
36191;SDS011;22233;42.708;23.360;2023-03-21T01:33:10;16.25;;;9.38;;
36191;SDS011;22233;42.708;23.360;2023-03-21T01:35:35;13.75;;;8.85;;
36191;SDS011;22233;42.708;23.360;2023-03-21T01:38:01;18.23;;;9.63;;
36191;SDS011;22233;42.708;23.360;2023-03-21T01:40:26;16.80;;;9.48;;
36191;SDS011;22233;42.708;23.360;2023-03-21T01:42:52;15.90;;;10.13;;
36191;SDS011;22233;42.708;23.360;2023-03-21T01:48:26;14.50;;;9.25;;
36191;SDS011;22233;42.708;23.360;2023-03-21T01:50:53;16.85;;;10.13;;
36191;SDS011;22233;42.708;23.360;2023-03-21T01:53:19;14.40;;;9.20;;
36191;SDS011;22233;42.708;23.360;2023-03-21T01:55:48;16.63;;;10.00;;
36191;SDS011;22233;42.708;23.360;2023-03-21T01:58:13;14.40;;;9.30;;
36191;SDS011;22233;42.708;23.360;2023-03-21T02:00:42;18.98;;;10.68;;
36191;SDS011;22233;42.708;23.360;2023-03-21T02:03:09;17.48;;;10.63;;
36191;SDS011;22233;42.708;23.360;2023-03-21T02:08:06;14.80;;;9.98;;
36191;SDS011;22233;42.708;23.360;2023-03-21T02:10:32;13.23;;;10.00;;
36191;SDS011;22233;42.708;23.360;2023-03-21T02:12:59;14.23;;;9.98;;
36191;SDS011;22233;42.708;23.360;2023-03-21T02:15:33;16.75;;;10.32;;
36191;SDS011;22233;42.708;23.360;2023-03-21T02:18:46;19.95;;;10.82;;
36191;SDS011;22233;42.708;23.360;2023-03-21T02:21:08;17.48;;;10.80;;
36191;SDS011;22233;42.708;23.360;2023-03-21T02:34:59;17.85;;;10.60;;
36191;SDS011;22233;42.708;23.360;2023-03-21T02:37:38;17.90;;;11.13;;
36191;SDS011;22233;42.708;23.360;2023-03-21T02:40:11;22.90;;;11.52;;
36191;SDS011;22233;42.708;23.360;2023-03-21T02:45:42;20.25;;;11.45;;
36191;SDS011;22233;42.708;23.360;2023-03-21T02:48:18;18.05;;;10.02;;
36191;SDS011;22233;42.708;23.360;2023-03-21T02:50:51;14.68;;;10.27;;
36191;SDS011;22233;42.708;23.360;2023-03-21T02:53:20;15.93;;;10.15;;
36191;SDS011;22233;42.708;23.360;2023-03-21T02:55:49;15.52;;;9.35;;
36191;SDS011;22233;42.708;23.360;2023-03-21T02:58:21;15.88;;;9.10;;
36191;SDS011;22233;42.708;23.360;2023-03-21T03:00:49;13.77;;;9.18;;
36191;SDS011;22233;42.708;23.360;2023-03-21T03:03:19;15.18;;;9.27;;
36191;SDS011;22233;42.708;23.360;2023-03-21T03:05:48;13.15;;;9.50;;
36191;SDS011;22233;42.708;23.360;2023-03-21T03:11:16;16.17;;;9.27;;
36191;SDS011;22233;42.708;23.360;2023-03-21T03:19:28;19.70;;;10.73;;
36191;SDS011;22233;42.708;23.360;2023-03-21T03:21:57;19.80;;;11.48;;
36191;SDS011;22233;42.708;23.360;2023-03-21T03:24:36;15.93;;;9.90;;
36191;SDS011;22233;42.708;23.360;2023-03-21T03:27:09;16.13;;;10.32;;
36191;SDS011;22233;42.708;23.360;2023-03-21T03:29:40;25.88;;;11.65;;
36191;SDS011;22233;42.708;23.360;2023-03-21T03:32:15;26.13;;;12.88;;
36191;SDS011;22233;42.708;23.360;2023-03-21T03:34:51;23.55;;;12.32;;
36191;SDS011;22233;42.708;23.360;2023-03-21T03:37:22;20.27;;;11.85;;
36191;SDS011;22233;42.708;23.360;2023-03-21T03:39:59;27.50;;;13.02;;
36191;SDS011;22233;42.708;23.360;2023-03-21T03:42:30;22.75;;;12.98;;
36191;SDS011;22233;42.708;23.360;2023-03-21T03:45:00;25.70;;;12.68;;
36191;SDS011;22233;42.708;23.360;2023-03-21T03:52:55;20.67;;;11.85;;
36191;SDS011;22233;42.708;23.360;2023-03-21T03:55:26;18.83;;;11.60;;
36191;SDS011;22233;42.708;23.360;2023-03-21T03:57:58;20.73;;;10.82;;
36191;SDS011;22233;42.708;23.360;2023-03-21T04:00:24;20.75;;;12.38;;
36191;SDS011;22233;42.708;23.360;2023-03-21T04:02:52;21.02;;;11.18;;
36191;SDS011;22233;42.708;23.360;2023-03-21T04:05:18;20.55;;;10.98;;
36191;SDS011;22233;42.708;23.360;2023-03-21T04:07:45;19.17;;;11.45;;
36191;SDS011;22233;42.708;23.360;2023-03-21T04:10:14;18.20;;;11.30;;
36191;SDS011;22233;42.708;23.360;2023-03-21T04:12:40;17.15;;;11.65;;
36191;SDS011;22233;42.708;23.360;2023-03-21T04:15:06;19.50;;;11.38;;
36191;SDS011;22233;42.708;23.360;2023-03-21T04:17:32;20.75;;;11.45;;
36191;SDS011;22233;42.708;23.360;2023-03-21T04:19:57;17.38;;;12.27;;
36191;SDS011;22233;42.708;23.360;2023-03-21T04:22:23;21.70;;;11.95;;
36191;SDS011;22233;42.708;23.360;2023-03-21T04:24:49;22.15;;;12.32;;
36191;SDS011;22233;42.708;23.360;2023-03-21T04:27:15;22.00;;;12.95;;
36191;SDS011;22233;42.708;23.360;2023-03-21T04:29:41;22.65;;;12.98;;
36191;SDS011;22233;42.708;23.360;2023-03-21T04:32:06;27.35;;;12.85;;
36191;SDS011;22233;42.708;23.360;2023-03-21T04:34:40;26.45;;;13.05;;
36191;SDS011;22233;42.708;23.360;2023-03-21T04:37:07;21.15;;;12.57;;
36191;SDS011;22233;42.708;23.360;2023-03-21T04:39:36;20.60;;;12.80;;
36191;SDS011;22233;42.708;23.360;2023-03-21T04:42:02;20.30;;;12.73;;
36191;SDS011;22233;42.708;23.360;2023-03-21T04:44:28;19.98;;;12.77;;
36191;SDS011;22233;42.708;23.360;2023-03-21T04:46:54;22.45;;;13.05;;
36191;SDS011;22233;42.708;23.360;2023-03-21T04:49:19;23.27;;;12.05;;
36191;SDS011;22233;42.708;23.360;2023-03-21T04:51:45;23.92;;;13.43;;
36191;SDS011;22233;42.708;23.360;2023-03-21T04:54:11;22.55;;;13.88;;
36191;SDS011;22233;42.708;23.360;2023-03-21T04:56:37;18.10;;;12.43;;
36191;SDS011;22233;42.708;23.360;2023-03-21T04:59:07;25.33;;;12.88;;
36191;SDS011;22233;42.708;23.360;2023-03-21T05:01:36;20.85;;;12.65;;
36191;SDS011;22233;42.708;23.360;2023-03-21T05:04:02;22.90;;;13.95;;
36191;SDS011;22233;42.708;23.360;2023-03-21T05:06:28;25.93;;;13.97;;
36191;SDS011;22233;42.708;23.360;2023-03-21T05:08:54;21.75;;;12.90;;
36191;SDS011;22233;42.708;23.360;2023-03-21T05:11:24;21.08;;;14.00;;
36191;SDS011;22233;42.708;23.360;2023-03-21T05:13:54;21.55;;;12.43;;
36191;SDS011;22233;42.708;23.360;2023-03-21T05:16:20;25.73;;;14.52;;
36191;SDS011;22233;42.708;23.360;2023-03-21T05:18:49;24.92;;;13.00;;
36191;SDS011;22233;42.708;23.360;2023-03-21T05:21:14;25.30;;;14.52;;
36191;SDS011;22233;42.708;23.360;2023-03-21T05:23:42;22.95;;;14.05;;
36191;SDS011;22233;42.708;23.360;2023-03-21T05:26:08;24.77;;;14.27;;
36191;SDS011;22233;42.708;23.360;2023-03-21T05:28:34;26.85;;;13.68;;
36191;SDS011;22233;42.708;23.360;2023-03-21T05:31:03;30.55;;;12.80;;
36191;SDS011;22233;42.708;23.360;2023-03-21T05:33:29;21.65;;;13.85;;
36191;SDS011;22233;42.708;23.360;2023-03-21T05:35:55;23.88;;;14.52;;
36191;SDS011;22233;42.708;23.360;2023-03-21T05:38:20;28.58;;;14.50;;
36191;SDS011;22233;42.708;23.360;2023-03-21T05:40:46;22.60;;;13.77;;
36191;SDS011;22233;42.708;23.360;2023-03-21T05:43:13;24.02;;;13.23;;
36191;SDS011;22233;42.708;23.360;2023-03-21T05:45:38;29.08;;;13.60;;
36191;SDS011;22233;42.708;23.360;2023-03-21T05:48:04;27.90;;;14.95;;
36191;SDS011;22233;42.708;23.360;2023-03-21T05:50:30;28.70;;;15.65;;
36191;SDS011;22233;42.708;23.360;2023-03-21T05:52:56;28.02;;;16.25;;
36191;SDS011;22233;42.708;23.360;2023-03-21T05:55:21;31.00;;;16.40;;
36191;SDS011;22233;42.708;23.360;2023-03-21T05:57:47;30.40;;;14.93;;
36191;SDS011;22233;42.708;23.360;2023-03-21T06:00:12;33.63;;;14.25;;
36191;SDS011;22233;42.708;23.360;2023-03-21T06:02:38;25.45;;;14.95;;
36191;SDS011;22233;42.708;23.360;2023-03-21T06:05:04;30.27;;;15.15;;
36191;SDS011;22233;42.708;23.360;2023-03-21T06:07:30;26.50;;;13.60;;
36191;SDS011;22233;42.708;23.360;2023-03-21T06:09:56;27.92;;;14.63;;
36191;SDS011;22233;42.708;23.360;2023-03-21T06:12:22;25.17;;;14.00;;
36191;SDS011;22233;42.708;23.360;2023-03-21T06:14:47;27.08;;;13.73;;
36191;SDS011;22233;42.708;23.360;2023-03-21T06:17:13;36.22;;;14.73;;
36191;SDS011;22233;42.708;23.360;2023-03-21T06:19:38;20.88;;;13.23;;
36191;SDS011;22233;42.708;23.360;2023-03-21T06:22:04;18.55;;;12.68;;
36191;SDS011;22233;42.708;23.360;2023-03-21T06:24:30;26.83;;;14.50;;
36191;SDS011;22233;42.708;23.360;2023-03-21T06:26:55;28.67;;;15.63;;
36191;SDS011;22233;42.708;23.360;2023-03-21T06:29:21;23.98;;;15.75;;
36191;SDS011;22233;42.708;23.360;2023-03-21T06:31:46;30.15;;;15.43;;
36191;SDS011;22233;42.708;23.360;2023-03-21T06:34:12;24.60;;;14.23;;
36191;SDS011;22233;42.708;23.360;2023-03-21T06:36:37;25.60;;;14.55;;
36191;SDS011;22233;42.708;23.360;2023-03-21T06:39:03;32.05;;;17.42;;
36191;SDS011;22233;42.708;23.360;2023-03-21T06:41:29;36.20;;;18.92;;
36191;SDS011;22233;42.708;23.360;2023-03-21T06:43:55;28.48;;;17.40;;
36191;SDS011;22233;42.708;23.360;2023-03-21T06:46:20;26.13;;;15.52;;
36191;SDS011;22233;42.708;23.360;2023-03-21T06:48:46;23.50;;;14.60;;
36191;SDS011;22233;42.708;23.360;2023-03-21T06:51:11;27.27;;;13.98;;
36191;SDS011;22233;42.708;23.360;2023-03-21T06:53:38;24.05;;;14.35;;
36191;SDS011;22233;42.708;23.360;2023-03-21T06:56:05;22.63;;;13.20;;
36191;SDS011;22233;42.708;23.360;2023-03-21T06:58:32;26.42;;;12.93;;
36191;SDS011;22233;42.708;23.360;2023-03-21T07:00:58;20.17;;;12.45;;
36191;SDS011;22233;42.708;23.360;2023-03-21T07:05:50;21.75;;;11.18;;
36191;SDS011;22233;42.708;23.360;2023-03-21T07:08:16;20.80;;;11.75;;
36191;SDS011;22233;42.708;23.360;2023-03-21T07:10:43;16.92;;;10.98;;
36191;SDS011;22233;42.708;23.360;2023-03-21T07:15:35;15.82;;;10.90;;
36191;SDS011;22233;42.708;23.360;2023-03-21T07:18:05;17.30;;;10.75;;
36191;SDS011;22233;42.708;23.360;2023-03-21T07:20:32;18.98;;;10.95;;
36191;SDS011;22233;42.708;23.360;2023-03-21T07:22:58;17.08;;;10.05;;
36191;SDS011;22233;42.708;23.360;2023-03-21T07:25:24;15.30;;;10.07;;
36191;SDS011;22233;42.708;23.360;2023-03-21T07:27:50;17.00;;;9.35;;
36191;SDS011;22233;42.708;23.360;2023-03-21T07:30:16;14.23;;;8.93;;
36191;SDS011;22233;42.708;23.360;2023-03-21T07:32:42;12.35;;;8.18;;
36191;SDS011;22233;42.708;23.360;2023-03-21T07:35:10;14.32;;;8.25;;
36191;SDS011;22233;42.708;23.360;2023-03-21T07:37:37;14.23;;;8.57;;
36191;SDS011;22233;42.708;23.360;2023-03-21T07:40:04;14.63;;;8.33;;
36191;SDS011;22233;42.708;23.360;2023-03-21T07:42:35;12.00;;;8.23;;
36191;SDS011;22233;42.708;23.360;2023-03-21T07:45:01;11.35;;;8.60;;
36191;SDS011;22233;42.708;23.360;2023-03-21T07:49:54;14.30;;;7.68;;
36191;SDS011;22233;42.708;23.360;2023-03-21T07:52:19;16.60;;;7.55;;
36191;SDS011;22233;42.708;23.360;2023-03-21T07:54:45;12.00;;;7.90;;
36191;SDS011;22233;42.708;23.360;2023-03-21T07:57:10;13.35;;;7.63;;
36191;SDS011;22233;42.708;23.360;2023-03-21T07:59:36;12.35;;;7.47;;
36191;SDS011;22233;42.708;23.360;2023-03-21T08:02:01;10.73;;;6.78;;
36191;SDS011;22233;42.708;23.360;2023-03-21T08:04:27;11.30;;;7.22;;
36191;SDS011;22233;42.708;23.360;2023-03-21T08:06:52;12.93;;;7.63;;
36191;SDS011;22233;42.708;23.360;2023-03-21T08:09:18;14.70;;;7.63;;
36191;SDS011;22233;42.708;23.360;2023-03-21T08:11:43;16.90;;;9.02;;
36191;SDS011;22233;42.708;23.360;2023-03-21T08:14:09;12.00;;;8.02;;
36191;SDS011;22233;42.708;23.360;2023-03-21T08:16:34;16.70;;;8.85;;
36191;SDS011;22233;42.708;23.360;2023-03-21T08:19:00;15.05;;;8.50;;
36191;SDS011;22233;42.708;23.360;2023-03-21T08:21:25;17.27;;;8.95;;
36191;SDS011;22233;42.708;23.360;2023-03-21T08:23:51;17.30;;;9.27;;
36191;SDS011;22233;42.708;23.360;2023-03-21T08:26:17;17.10;;;9.23;;
36191;SDS011;22233;42.708;23.360;2023-03-21T08:28:43;19.52;;;10.07;;
36191;SDS011;22233;42.708;23.360;2023-03-21T08:31:10;19.60;;;9.98;;
36191;SDS011;22233;42.708;23.360;2023-03-21T08:33:37;13.55;;;9.52;;
36191;SDS011;22233;42.708;23.360;2023-03-21T08:36:03;13.98;;;9.63;;
36191;SDS011;22233;42.708;23.360;2023-03-21T08:38:30;19.63;;;10.50;;
36191;SDS011;22233;42.708;23.360;2023-03-21T08:40:57;20.00;;;11.32;;
36191;SDS011;22233;42.708;23.360;2023-03-21T08:43:24;14.38;;;8.95;;
36191;SDS011;22233;42.708;23.360;2023-03-21T08:45:50;16.55;;;10.10;;
36191;SDS011;22233;42.708;23.360;2023-03-21T08:48:16;16.42;;;10.57;;
36191;SDS011;22233;42.708;23.360;2023-03-21T08:50:41;18.60;;;10.80;;
36191;SDS011;22233;42.708;23.360;2023-03-21T08:53:08;16.63;;;9.82;;
36191;SDS011;22233;42.708;23.360;2023-03-21T08:55:33;16.95;;;10.27;;
36191;SDS011;22233;42.708;23.360;2023-03-21T08:57:58;15.73;;;9.82;;
36191;SDS011;22233;42.708;23.360;2023-03-21T09:00:25;19.77;;;10.43;;
36191;SDS011;22233;42.708;23.360;2023-03-21T09:02:51;14.52;;;10.15;;
36191;SDS011;22233;42.708;23.360;2023-03-21T09:05:18;16.85;;;10.27;;
36191;SDS011;22233;42.708;23.360;2023-03-21T09:07:44;15.48;;;9.45;;
36191;SDS011;22233;42.708;23.360;2023-03-21T09:10:11;18.75;;;9.23;;
36191;SDS011;22233;42.708;23.360;2023-03-21T09:12:40;14.80;;;8.95;;
36191;SDS011;22233;42.708;23.360;2023-03-21T09:15:06;16.98;;;9.48;;
36191;SDS011;22233;42.708;23.360;2023-03-21T09:17:33;17.33;;;9.75;;
36191;SDS011;22233;42.708;23.360;2023-03-21T09:19:58;15.60;;;9.25;;
36191;SDS011;22233;42.708;23.360;2023-03-21T09:22:26;15.73;;;8.38;;
36191;SDS011;22233;42.708;23.360;2023-03-21T09:24:52;13.85;;;9.05;;
36191;SDS011;22233;42.708;23.360;2023-03-21T09:27:18;13.13;;;8.73;;
36191;SDS011;22233;42.708;23.360;2023-03-21T09:29:47;15.25;;;9.13;;
36191;SDS011;22233;42.708;23.360;2023-03-21T09:32:13;13.25;;;8.68;;
36191;SDS011;22233;42.708;23.360;2023-03-21T09:34:39;14.23;;;7.95;;
36191;SDS011;22233;42.708;23.360;2023-03-21T09:37:09;18.90;;;8.02;;
36191;SDS011;22233;42.708;23.360;2023-03-21T09:39:37;15.35;;;8.25;;
36191;SDS011;22233;42.708;23.360;2023-03-21T09:45:01;13.15;;;8.05;;
36191;SDS011;22233;42.708;23.360;2023-03-21T09:47:41;12.90;;;7.18;;
36191;SDS011;22233;42.708;23.360;2023-03-21T09:50:14;11.30;;;8.07;;
36191;SDS011;22233;42.708;23.360;2023-03-21T09:55:28;13.25;;;7.72;;
36191;SDS011;22233;42.708;23.360;2023-03-21T10:01:11;11.05;;;7.40;;
36191;SDS011;22233;42.708;23.360;2023-03-21T10:03:46;14.23;;;7.57;;
36191;SDS011;22233;42.708;23.360;2023-03-21T10:06:15;12.18;;;7.45;;
36191;SDS011;22233;42.708;23.360;2023-03-21T10:08:42;14.40;;;7.97;;
36191;SDS011;22233;42.708;23.360;2023-03-21T10:11:13;12.40;;;7.03;;
36191;SDS011;22233;42.708;23.360;2023-03-21T10:13:43;12.32;;;7.10;;
36191;SDS011;22233;42.708;23.360;2023-03-21T10:16:20;11.70;;;6.97;;
36191;SDS011;22233;42.708;23.360;2023-03-21T10:18:51;10.38;;;7.32;;
36191;SDS011;22233;42.708;23.360;2023-03-21T10:21:20;10.93;;;7.35;;
36191;SDS011;22233;42.708;23.360;2023-03-21T10:23:49;14.35;;;7.35;;
36191;SDS011;22233;42.708;23.360;2023-03-21T10:26:17;8.70;;;6.75;;
36191;SDS011;22233;42.708;23.360;2023-03-21T10:31:13;9.98;;;5.88;;
36191;SDS011;22233;42.708;23.360;2023-03-21T10:33:42;13.90;;;7.28;;
36191;SDS011;22233;42.708;23.360;2023-03-21T10:36:11;9.45;;;6.28;;
36191;SDS011;22233;42.708;23.360;2023-03-21T10:38:45;7.60;;;5.03;;
36191;SDS011;22233;42.708;23.360;2023-03-21T10:41:14;10.02;;;6.95;;
36191;SDS011;22233;42.708;23.360;2023-03-21T10:43:40;10.18;;;6.40;;
36191;SDS011;22233;42.708;23.360;2023-03-21T10:46:16;8.98;;;6.07;;
36191;SDS011;22233;42.708;23.360;2023-03-21T10:48:48;10.02;;;6.70;;
36191;SDS011;22233;42.708;23.360;2023-03-21T10:51:20;8.35;;;6.60;;
36191;SDS011;22233;42.708;23.360;2023-03-21T10:54:07;11.13;;;6.38;;
36191;SDS011;22233;42.708;23.360;2023-03-21T10:56:59;9.00;;;6.18;;
36191;SDS011;22233;42.708;23.360;2023-03-21T10:59:23;12.77;;;7.65;;
36191;SDS011;22233;42.708;23.360;2023-03-21T11:01:52;12.63;;;8.07;;
36191;SDS011;22233;42.708;23.360;2023-03-21T11:04:21;9.85;;;6.68;;
36191;SDS011;22233;42.708;23.360;2023-03-21T11:06:54;9.60;;;7.38;;
36191;SDS011;22233;42.708;23.360;2023-03-21T11:09:24;10.68;;;7.18;;
36191;SDS011;22233;42.708;23.360;2023-03-21T11:17:18;6.32;;;5.20;;
36191;SDS011;22233;42.708;23.360;2023-03-21T11:19:49;8.80;;;4.95;;
36191;SDS011;22233;42.708;23.360;2023-03-21T11:22:17;9.55;;;3.88;;
36191;SDS011;22233;42.708;23.360;2023-03-21T11:24:50;8.68;;;4.38;;
36191;SDS011;22233;42.708;23.360;2023-03-21T11:27:18;6.38;;;4.60;;
36191;SDS011;22233;42.708;23.360;2023-03-21T11:29:47;5.57;;;4.40;;
36191;SDS011;22233;42.708;23.360;2023-03-21T11:32:49;5.30;;;3.47;;
36191;SDS011;22233;42.708;23.360;2023-03-21T11:35:15;5.68;;;3.30;;
36191;SDS011;22233;42.708;23.360;2023-03-21T11:37:46;6.10;;;3.42;;
36191;SDS011;22233;42.708;23.360;2023-03-21T11:40:23;5.68;;;3.63;;
36191;SDS011;22233;42.708;23.360;2023-03-21T11:42:52;5.65;;;3.88;;
36191;SDS011;22233;42.708;23.360;2023-03-21T11:45:20;4.57;;;3.25;;
36191;SDS011;22233;42.708;23.360;2023-03-21T11:47:55;4.43;;;3.30;;
36191;SDS011;22233;42.708;23.360;2023-03-21T11:50:26;4.20;;;3.35;;
36191;SDS011;22233;42.708;23.360;2023-03-21T12:01:18;6.65;;;3.90;;
36191;SDS011;22233;42.708;23.360;2023-03-21T12:06:41;6.20;;;3.22;;
36191;SDS011;22233;42.708;23.360;2023-03-21T12:09:28;7.70;;;3.60;;
36191;SDS011;22233;42.708;23.360;2023-03-21T12:14:41;3.90;;;2.72;;
36191;SDS011;22233;42.708;23.360;2023-03-21T12:18:03;4.20;;;3.30;;
36191;SDS011;22233;42.708;23.360;2023-03-21T12:25:10;6.53;;;3.35;;
36191;SDS011;22233;42.708;23.360;2023-03-21T12:41:44;5.45;;;3.20;;
36191;SDS011;22233;42.708;23.360;2023-03-21T12:44:26;3.92;;;3.40;;
36191;SDS011;22233;42.708;23.360;2023-03-21T12:46:58;5.80;;;3.70;;
36191;SDS011;22233;42.708;23.360;2023-03-21T12:49:38;5.63;;;3.28;;
36191;SDS011;22233;42.708;23.360;2023-03-21T12:52:13;9.57;;;2.92;;
36191;SDS011;22233;42.708;23.360;2023-03-21T12:54:47;4.80;;;2.80;;
36191;SDS011;22233;42.708;23.360;2023-03-21T12:57:22;5.00;;;2.75;;
36191;SDS011;22233;42.708;23.360;2023-03-21T13:02:59;4.00;;;2.97;;
36191;SDS011;22233;42.708;23.360;2023-03-21T13:07:55;7.78;;;3.50;;
36191;SDS011;22233;42.708;23.360;2023-03-21T13:10:25;6.95;;;3.60;;
36191;SDS011;22233;42.708;23.360;2023-03-21T13:20:54;5.70;;;2.95;;
36191;SDS011;22233;42.708;23.360;2023-03-21T13:23:22;4.15;;;3.35;;
36191;SDS011;22233;42.708;23.360;2023-03-21T13:28:25;3.70;;;2.67;;
36191;SDS011;22233;42.708;23.360;2023-03-21T13:30:53;3.90;;;2.58;;
36191;SDS011;22233;42.708;23.360;2023-03-21T13:33:47;8.38;;;3.53;;
36191;SDS011;22233;42.708;23.360;2023-03-21T13:39:15;2.80;;;2.35;;
36191;SDS011;22233;42.708;23.360;2023-03-21T13:41:51;3.78;;;2.78;;
36191;SDS011;22233;42.708;23.360;2023-03-21T13:44:22;5.30;;;3.22;;
36191;SDS011;22233;42.708;23.360;2023-03-21T13:47:23;4.25;;;2.75;;
36191;SDS011;22233;42.708;23.360;2023-03-21T13:55:26;4.05;;;2.88;;
36191;SDS011;22233;42.708;23.360;2023-03-21T14:00:29;4.20;;;3.40;;
36191;SDS011;22233;42.708;23.360;2023-03-21T14:02:56;5.20;;;2.97;;
36191;SDS011;22233;42.708;23.360;2023-03-21T14:05:25;4.78;;;2.63;;
36191;SDS011;22233;42.708;23.360;2023-03-21T14:07:59;4.22;;;2.70;;
36191;SDS011;22233;42.708;23.360;2023-03-21T14:10:37;4.10;;;3.35;;
36191;SDS011;22233;42.708;23.360;2023-03-21T14:13:06;4.28;;;2.97;;
36191;SDS011;22233;42.708;23.360;2023-03-21T14:15:51;5.57;;;3.03;;
36191;SDS011;22233;42.708;23.360;2023-03-21T14:18:25;4.07;;;2.97;;
36191;SDS011;22233;42.708;23.360;2023-03-21T14:20:53;4.75;;;2.75;;
36191;SDS011;22233;42.708;23.360;2023-03-21T14:25:45;3.92;;;2.78;;
36191;SDS011;22233;42.708;23.360;2023-03-21T14:28:17;4.78;;;2.92;;
36191;SDS011;22233;42.708;23.360;2023-03-21T14:30:55;4.80;;;2.95;;
36191;SDS011;22233;42.708;23.360;2023-03-21T14:35:56;4.15;;;3.35;;
36191;SDS011;22233;42.708;23.360;2023-03-21T14:38:24;7.60;;;3.35;;
36191;SDS011;22233;42.708;23.360;2023-03-21T14:40:53;5.57;;;3.15;;
36191;SDS011;22233;42.708;23.360;2023-03-21T14:43:21;6.10;;;2.85;;
36191;SDS011;22233;42.708;23.360;2023-03-21T14:45:51;4.80;;;3.05;;
36191;SDS011;22233;42.708;23.360;2023-03-21T14:48:19;5.30;;;2.92;;
36191;SDS011;22233;42.708;23.360;2023-03-21T14:50:52;5.95;;;3.58;;
36191;SDS011;22233;42.708;23.360;2023-03-21T14:53:21;4.85;;;2.83;;
36191;SDS011;22233;42.708;23.360;2023-03-21T14:55:57;6.10;;;2.70;;
36191;SDS011;22233;42.708;23.360;2023-03-21T14:58:26;4.75;;;3.17;;
36191;SDS011;22233;42.708;23.360;2023-03-21T15:03:22;4.82;;;2.78;;
36191;SDS011;22233;42.708;23.360;2023-03-21T15:05:50;6.82;;;2.97;;
36191;SDS011;22233;42.708;23.360;2023-03-21T15:08:17;4.15;;;2.70;;
36191;SDS011;22233;42.708;23.360;2023-03-21T15:13:21;5.10;;;2.83;;
36191;SDS011;22233;42.708;23.360;2023-03-21T15:15:59;3.97;;;3.08;;
36191;SDS011;22233;42.708;23.360;2023-03-21T15:18:29;6.57;;;3.70;;
36191;SDS011;22233;42.708;23.360;2023-03-21T15:20:58;7.28;;;3.30;;
36191;SDS011;22233;42.708;23.360;2023-03-21T15:26:20;6.63;;;3.22;;
36191;SDS011;22233;42.708;23.360;2023-03-21T15:28:49;9.73;;;4.13;;
36191;SDS011;22233;42.708;23.360;2023-03-21T15:31:20;6.55;;;4.20;;
36191;SDS011;22233;42.708;23.360;2023-03-21T15:33:48;6.85;;;4.32;;
36191;SDS011;22233;42.708;23.360;2023-03-21T15:38:49;7.32;;;4.38;;
36191;SDS011;22233;42.708;23.360;2023-03-21T15:43:43;5.05;;;3.85;;
36191;SDS011;22233;42.708;23.360;2023-03-21T15:46:14;7.50;;;4.38;;
36191;SDS011;22233;42.708;23.360;2023-03-21T15:48:41;7.57;;;5.05;;
36191;SDS011;22233;42.708;23.360;2023-03-21T15:51:10;10.45;;;4.95;;
36191;SDS011;22233;42.708;23.360;2023-03-21T15:53:46;7.78;;;5.00;;
36191;SDS011;22233;42.708;23.360;2023-03-21T15:56:12;11.02;;;6.07;;
36191;SDS011;22233;42.708;23.360;2023-03-21T15:58:43;7.68;;;6.30;;
36191;SDS011;22233;42.708;23.360;2023-03-21T16:01:14;10.35;;;7.82;;
36191;SDS011;22233;42.708;23.360;2023-03-21T16:03:43;9.38;;;6.78;;
36191;SDS011;22233;42.708;23.360;2023-03-21T16:08:36;8.38;;;5.78;;
36191;SDS011;22233;42.708;23.360;2023-03-21T16:13:48;7.35;;;4.95;;
36191;SDS011;22233;42.708;23.360;2023-03-21T16:16:15;6.57;;;4.60;;
36191;SDS011;22233;42.708;23.360;2023-03-21T16:18:41;11.52;;;5.78;;
36191;SDS011;22233;42.708;23.360;2023-03-21T16:21:09;6.32;;;5.10;;
36191;SDS011;22233;42.708;23.360;2023-03-21T16:23:36;7.40;;;5.70;;
36191;SDS011;22233;42.708;23.360;2023-03-21T16:26:02;6.80;;;5.05;;
36191;SDS011;22233;42.708;23.360;2023-03-21T16:28:29;6.40;;;5.20;;
36191;SDS011;22233;42.708;23.360;2023-03-21T16:30:55;9.95;;;5.70;;
36191;SDS011;22233;42.708;23.360;2023-03-21T16:33:21;7.95;;;5.82;;
36191;SDS011;22233;42.708;23.360;2023-03-21T16:35:46;7.32;;;5.40;;
36191;SDS011;22233;42.708;23.360;2023-03-21T16:38:12;7.60;;;5.68;;
36191;SDS011;22233;42.708;23.360;2023-03-21T16:40:39;7.82;;;6.35;;
36191;SDS011;22233;42.708;23.360;2023-03-21T16:45:31;9.00;;;7.28;;
36191;SDS011;22233;42.708;23.360;2023-03-21T16:47:57;11.13;;;6.63;;
36191;SDS011;22233;42.708;23.360;2023-03-21T16:50:28;11.85;;;6.68;;
36191;SDS011;22233;42.708;23.360;2023-03-21T16:52:57;16.85;;;9.80;;